sensor_id;sensor_type;location;lat;lon;timestamp;temperature;humidity
12726;DHT22;6427;49.754;6.106;2022-12-07T00:00:52;4.20;99.90
12726;DHT22;6427;49.754;6.106;2022-12-07T00:03:19;4.30;99.90
12726;DHT22;6427;49.754;6.106;2022-12-07T00:05:47;4.50;99.90
12726;DHT22;6427;49.754;6.106;2022-12-07T00:08:14;4.70;99.90
12726;DHT22;6427;49.754;6.106;2022-12-07T00:10:42;4.70;99.90
12726;DHT22;6427;49.754;6.106;2022-12-07T00:13:10;4.60;99.90
12726;DHT22;6427;49.754;6.106;2022-12-07T00:15:37;4.50;99.90
12726;DHT22;6427;49.754;6.106;2022-12-07T00:18:06;4.40;99.90
12726;DHT22;6427;49.754;6.106;2022-12-07T00:20:33;4.40;99.90
12726;DHT22;6427;49.754;6.106;2022-12-07T00:23:01;4.40;99.90
12726;DHT22;6427;49.754;6.106;2022-12-07T00:25:30;4.30;99.90
12726;DHT22;6427;49.754;6.106;2022-12-07T00:27:56;4.50;99.90
12726;DHT22;6427;49.754;6.106;2022-12-07T00:30:25;4.50;99.90
12726;DHT22;6427;49.754;6.106;2022-12-07T00:32:52;4.40;99.90
12726;DHT22;6427;49.754;6.106;2022-12-07T00:35:21;4.30;99.90
12726;DHT22;6427;49.754;6.106;2022-12-07T00:37:48;4.30;99.90
12726;DHT22;6427;49.754;6.106;2022-12-07T00:40:16;4.30;99.90
12726;DHT22;6427;49.754;6.106;2022-12-07T00:42:43;4.20;99.90
12726;DHT22;6427;49.754;6.106;2022-12-07T00:45:11;4.20;99.90
12726;DHT22;6427;49.754;6.106;2022-12-07T00:47:39;4.40;99.90
12726;DHT22;6427;49.754;6.106;2022-12-07T00:50:06;4.40;99.90
12726;DHT22;6427;49.754;6.106;2022-12-07T00:52:35;4.50;99.90
12726;DHT22;6427;49.754;6.106;2022-12-07T00:55:02;4.50;99.90
12726;DHT22;6427;49.754;6.106;2022-12-07T00:57:30;4.40;99.90
12726;DHT22;6427;49.754;6.106;2022-12-07T00:59:58;4.40;99.90
12726;DHT22;6427;49.754;6.106;2022-12-07T01:02:25;4.30;99.90
12726;DHT22;6427;49.754;6.106;2022-12-07T01:04:53;4.30;99.90
12726;DHT22;6427;49.754;6.106;2022-12-07T01:07:21;4.20;99.90
12726;DHT22;6427;49.754;6.106;2022-12-07T01:09:48;4.20;99.90
12726;DHT22;6427;49.754;6.106;2022-12-07T01:12:17;4.20;99.90
12726;DHT22;6427;49.754;6.106;2022-12-07T01:14:44;4.10;99.90
12726;DHT22;6427;49.754;6.106;2022-12-07T01:17:12;4.10;99.90
12726;DHT22;6427;49.754;6.106;2022-12-07T01:19:39;4.10;99.90
12726;DHT22;6427;49.754;6.106;2022-12-07T01:22:07;4.10;99.90
12726;DHT22;6427;49.754;6.106;2022-12-07T01:24:35;4.10;99.90
12726;DHT22;6427;49.754;6.106;2022-12-07T01:27:03;4.10;99.90
12726;DHT22;6427;49.754;6.106;2022-12-07T01:29:30;4.10;99.90
12726;DHT22;6427;49.754;6.106;2022-12-07T01:31:59;4.10;99.90
12726;DHT22;6427;49.754;6.106;2022-12-07T01:34:26;4.10;99.90
12726;DHT22;6427;49.754;6.106;2022-12-07T01:36:54;4.10;99.90
12726;DHT22;6427;49.754;6.106;2022-12-07T01:39:21;4.10;99.90
12726;DHT22;6427;49.754;6.106;2022-12-07T01:41:50;4.20;99.90
12726;DHT22;6427;49.754;6.106;2022-12-07T01:46:46;4.10;99.90
12726;DHT22;6427;49.754;6.106;2022-12-07T01:49:14;4.10;99.90
12726;DHT22;6427;49.754;6.106;2022-12-07T01:51:40;4.20;99.90
12726;DHT22;6427;49.754;6.106;2022-12-07T01:54:08;4.50;99.90
12726;DHT22;6427;49.754;6.106;2022-12-07T01:56:35;4.50;99.90
12726;DHT22;6427;49.754;6.106;2022-12-07T01:59:03;4.50;99.90
12726;DHT22;6427;49.754;6.106;2022-12-07T02:01:31;4.50;99.90
12726;DHT22;6427;49.754;6.106;2022-12-07T02:03:59;4.70;99.90
12726;DHT22;6427;49.754;6.106;2022-12-07T02:06:26;4.70;99.90
12726;DHT22;6427;49.754;6.106;2022-12-07T02:08:54;4.70;99.90
12726;DHT22;6427;49.754;6.106;2022-12-07T02:11:22;4.90;99.90
12726;DHT22;6427;49.754;6.106;2022-12-07T02:13:49;4.90;99.90
12726;DHT22;6427;49.754;6.106;2022-12-07T02:22:07;4.70;99.90
12726;DHT22;6427;49.754;6.106;2022-12-07T02:24:39;4.70;99.90
12726;DHT22;6427;49.754;6.106;2022-12-07T02:30:01;4.70;99.90
12726;DHT22;6427;49.754;6.106;2022-12-07T02:42:58;4.60;99.90
12726;DHT22;6427;49.754;6.106;2022-12-07T02:45:24;4.90;99.90
12726;DHT22;6427;49.754;6.106;2022-12-07T02:47:53;4.90;99.90
12726;DHT22;6427;49.754;6.106;2022-12-07T02:50:20;4.90;99.90
12726;DHT22;6427;49.754;6.106;2022-12-07T02:52:47;4.90;99.90
12726;DHT22;6427;49.754;6.106;2022-12-07T02:55:15;4.80;99.90
12726;DHT22;6427;49.754;6.106;2022-12-07T03:00:34;4.80;99.90
12726;DHT22;6427;49.754;6.106;2022-12-07T03:03:03;4.80;99.90
12726;DHT22;6427;49.754;6.106;2022-12-07T03:05:35;4.70;99.90
12726;DHT22;6427;49.754;6.106;2022-12-07T03:08:21;4.80;99.90
12726;DHT22;6427;49.754;6.106;2022-12-07T03:11:08;4.70;99.90
12726;DHT22;6427;49.754;6.106;2022-12-07T03:13:39;4.70;99.90
12726;DHT22;6427;49.754;6.106;2022-12-07T03:16:35;4.70;99.90
12726;DHT22;6427;49.754;6.106;2022-12-07T03:19:07;5.00;99.90
12726;DHT22;6427;49.754;6.106;2022-12-07T03:21:32;5.00;99.90
12726;DHT22;6427;49.754;6.106;2022-12-07T03:23:59;5.00;99.90
12726;DHT22;6427;49.754;6.106;2022-12-07T03:26:30;5.00;99.90
12726;DHT22;6427;49.754;6.106;2022-12-07T03:28:55;4.90;99.90
12726;DHT22;6427;49.754;6.106;2022-12-07T03:31:22;4.90;99.90
12726;DHT22;6427;49.754;6.106;2022-12-07T03:33:53;4.90;99.90
12726;DHT22;6427;49.754;6.106;2022-12-07T03:36:22;4.90;99.90
12726;DHT22;6427;49.754;6.106;2022-12-07T03:38:53;4.90;99.90
12726;DHT22;6427;49.754;6.106;2022-12-07T03:41:29;4.90;99.90
12726;DHT22;6427;49.754;6.106;2022-12-07T03:43:55;4.90;99.90
12726;DHT22;6427;49.754;6.106;2022-12-07T03:49:05;4.90;99.90
12726;DHT22;6427;49.754;6.106;2022-12-07T03:51:57;4.80;99.90
12726;DHT22;6427;49.754;6.106;2022-12-07T03:54:37;5.10;99.90
12726;DHT22;6427;49.754;6.106;2022-12-07T03:57:01;5.40;99.90
12726;DHT22;6427;49.754;6.106;2022-12-07T03:59:28;5.30;99.90
12726;DHT22;6427;49.754;6.106;2022-12-07T04:01:57;5.30;99.90
12726;DHT22;6427;49.754;6.106;2022-12-07T04:04:24;5.20;99.90
12726;DHT22;6427;49.754;6.106;2022-12-07T04:06:51;5.40;99.90
12726;DHT22;6427;49.754;6.106;2022-12-07T04:09:19;5.40;99.90
12726;DHT22;6427;49.754;6.106;2022-12-07T04:11:46;5.50;99.90
12726;DHT22;6427;49.754;6.106;2022-12-07T04:14:14;5.50;99.90
12726;DHT22;6427;49.754;6.106;2022-12-07T04:16:54;5.40;99.90
12726;DHT22;6427;49.754;6.106;2022-12-07T04:19:26;5.30;99.90
12726;DHT22;6427;49.754;6.106;2022-12-07T04:21:49;5.20;99.90
12726;DHT22;6427;49.754;6.106;2022-12-07T04:24:17;5.30;99.90
12726;DHT22;6427;49.754;6.106;2022-12-07T04:26:45;5.30;99.90
12726;DHT22;6427;49.754;6.106;2022-12-07T04:29:12;5.20;99.90
12726;DHT22;6427;49.754;6.106;2022-12-07T04:31:40;5.20;99.90
12726;DHT22;6427;49.754;6.106;2022-12-07T04:34:07;5.10;99.90
12726;DHT22;6427;49.754;6.106;2022-12-07T04:36:35;5.00;99.90
12726;DHT22;6427;49.754;6.106;2022-12-07T04:39:04;5.00;99.90
12726;DHT22;6427;49.754;6.106;2022-12-07T04:41:31;5.00;99.90
12726;DHT22;6427;49.754;6.106;2022-12-07T04:44:00;4.90;99.90
12726;DHT22;6427;49.754;6.106;2022-12-07T04:46:27;4.90;99.90
12726;DHT22;6427;49.754;6.106;2022-12-07T04:48:55;4.90;99.90
12726;DHT22;6427;49.754;6.106;2022-12-07T04:51:23;4.90;99.90
12726;DHT22;6427;49.754;6.106;2022-12-07T04:53:49;4.90;99.90
12726;DHT22;6427;49.754;6.106;2022-12-07T04:56:17;4.90;99.90
12726;DHT22;6427;49.754;6.106;2022-12-07T04:58:45;4.90;99.90
12726;DHT22;6427;49.754;6.106;2022-12-07T05:01:12;4.90;99.90
12726;DHT22;6427;49.754;6.106;2022-12-07T05:03:40;4.90;99.90
12726;DHT22;6427;49.754;6.106;2022-12-07T05:06:07;5.00;99.90
12726;DHT22;6427;49.754;6.106;2022-12-07T05:08:35;5.00;99.90
12726;DHT22;6427;49.754;6.106;2022-12-07T05:11:02;5.20;99.90
12726;DHT22;6427;49.754;6.106;2022-12-07T05:13:31;5.50;99.90
12726;DHT22;6427;49.754;6.106;2022-12-07T05:15:58;5.50;99.90
12726;DHT22;6427;49.754;6.106;2022-12-07T05:18:26;5.50;99.90
12726;DHT22;6427;49.754;6.106;2022-12-07T05:20:53;5.40;99.90
12726;DHT22;6427;49.754;6.106;2022-12-07T05:23:21;5.40;99.90
12726;DHT22;6427;49.754;6.106;2022-12-07T05:25:49;5.40;99.90
12726;DHT22;6427;49.754;6.106;2022-12-07T05:28:16;5.30;99.90
12726;DHT22;6427;49.754;6.106;2022-12-07T05:30:44;5.30;99.90
12726;DHT22;6427;49.754;6.106;2022-12-07T05:33:11;5.30;99.90
12726;DHT22;6427;49.754;6.106;2022-12-07T05:35:39;5.20;99.90
12726;DHT22;6427;49.754;6.106;2022-12-07T05:38:06;5.30;99.90
12726;DHT22;6427;49.754;6.106;2022-12-07T05:40:36;5.20;99.90
12726;DHT22;6427;49.754;6.106;2022-12-07T05:43:02;5.20;99.90
12726;DHT22;6427;49.754;6.106;2022-12-07T05:45:31;5.30;99.90
12726;DHT22;6427;49.754;6.106;2022-12-07T05:47:58;5.30;99.90
12726;DHT22;6427;49.754;6.106;2022-12-07T05:50:26;5.20;99.90
12726;DHT22;6427;49.754;6.106;2022-12-07T05:52:53;5.20;99.90
12726;DHT22;6427;49.754;6.106;2022-12-07T05:55:21;5.30;99.90
12726;DHT22;6427;49.754;6.106;2022-12-07T05:57:49;5.30;99.90
12726;DHT22;6427;49.754;6.106;2022-12-07T06:00:35;5.30;99.90
12726;DHT22;6427;49.754;6.106;2022-12-07T06:03:04;5.30;99.90
12726;DHT22;6427;49.754;6.106;2022-12-07T06:05:31;5.20;99.90
12726;DHT22;6427;49.754;6.106;2022-12-07T06:07:59;5.30;99.90
12726;DHT22;6427;49.754;6.106;2022-12-07T06:10:26;5.30;99.90
12726;DHT22;6427;49.754;6.106;2022-12-07T06:12:54;5.30;99.90
12726;DHT22;6427;49.754;6.106;2022-12-07T06:15:21;5.30;99.90
12726;DHT22;6427;49.754;6.106;2022-12-07T06:17:49;5.30;99.90
12726;DHT22;6427;49.754;6.106;2022-12-07T06:20:17;5.30;99.90
12726;DHT22;6427;49.754;6.106;2022-12-07T06:22:45;5.30;99.90
12726;DHT22;6427;49.754;6.106;2022-12-07T06:25:13;5.30;99.90
12726;DHT22;6427;49.754;6.106;2022-12-07T06:27:40;5.30;99.90
12726;DHT22;6427;49.754;6.106;2022-12-07T06:30:08;5.40;99.90
12726;DHT22;6427;49.754;6.106;2022-12-07T06:32:36;5.40;99.90
12726;DHT22;6427;49.754;6.106;2022-12-07T06:35:04;5.40;99.90
12726;DHT22;6427;49.754;6.106;2022-12-07T06:37:31;5.40;99.90
12726;DHT22;6427;49.754;6.106;2022-12-07T06:39:59;5.40;99.90
12726;DHT22;6427;49.754;6.106;2022-12-07T06:42:27;5.40;99.90
12726;DHT22;6427;49.754;6.106;2022-12-07T06:44:55;5.40;99.90
12726;DHT22;6427;49.754;6.106;2022-12-07T06:47:22;5.40;99.90
12726;DHT22;6427;49.754;6.106;2022-12-07T06:49:50;5.40;99.90
12726;DHT22;6427;49.754;6.106;2022-12-07T06:52:17;5.40;99.90
12726;DHT22;6427;49.754;6.106;2022-12-07T06:54:45;5.40;99.90
12726;DHT22;6427;49.754;6.106;2022-12-07T06:57:12;5.60;99.90
12726;DHT22;6427;49.754;6.106;2022-12-07T06:59:40;5.90;99.90
12726;DHT22;6427;49.754;6.106;2022-12-07T07:02:08;5.90;99.90
12726;DHT22;6427;49.754;6.106;2022-12-07T07:04:36;5.70;99.90
12726;DHT22;6427;49.754;6.106;2022-12-07T07:07:04;5.70;99.90
12726;DHT22;6427;49.754;6.106;2022-12-07T07:09:32;5.60;99.90
12726;DHT22;6427;49.754;6.106;2022-12-07T07:12:00;5.60;99.90
12726;DHT22;6427;49.754;6.106;2022-12-07T07:14:27;5.60;99.90
12726;DHT22;6427;49.754;6.106;2022-12-07T07:16:56;5.50;99.90
12726;DHT22;6427;49.754;6.106;2022-12-07T07:19:23;5.50;99.90
12726;DHT22;6427;49.754;6.106;2022-12-07T07:21:51;5.50;99.90
12726;DHT22;6427;49.754;6.106;2022-12-07T07:24:19;5.50;99.90
12726;DHT22;6427;49.754;6.106;2022-12-07T07:26:47;5.50;99.90
12726;DHT22;6427;49.754;6.106;2022-12-07T07:29:14;5.50;99.90
12726;DHT22;6427;49.754;6.106;2022-12-07T07:31:42;5.50;99.90
12726;DHT22;6427;49.754;6.106;2022-12-07T07:34:09;5.40;99.90
12726;DHT22;6427;49.754;6.106;2022-12-07T07:36:37;5.40;99.90
12726;DHT22;6427;49.754;6.106;2022-12-07T07:39:04;5.40;99.90
12726;DHT22;6427;49.754;6.106;2022-12-07T07:41:33;5.60;99.90
12726;DHT22;6427;49.754;6.106;2022-12-07T07:44:01;5.60;99.90
12726;DHT22;6427;49.754;6.106;2022-12-07T07:46:30;5.60;99.90
12726;DHT22;6427;49.754;6.106;2022-12-07T07:48:58;5.50;99.90
12726;DHT22;6427;49.754;6.106;2022-12-07T07:51:26;5.60;99.90
12726;DHT22;6427;49.754;6.106;2022-12-07T07:53:53;5.50;99.90
12726;DHT22;6427;49.754;6.106;2022-12-07T07:56:21;5.50;99.90
12726;DHT22;6427;49.754;6.106;2022-12-07T07:58:51;5.50;99.90
12726;DHT22;6427;49.754;6.106;2022-12-07T08:01:16;5.50;99.90
12726;DHT22;6427;49.754;6.106;2022-12-07T08:03:44;5.50;99.90
12726;DHT22;6427;49.754;6.106;2022-12-07T08:06:12;5.50;99.90
12726;DHT22;6427;49.754;6.106;2022-12-07T08:08:39;5.50;99.90
12726;DHT22;6427;49.754;6.106;2022-12-07T08:11:08;5.50;99.90
12726;DHT22;6427;49.754;6.106;2022-12-07T08:13:35;5.80;99.90
12726;DHT22;6427;49.754;6.106;2022-12-07T08:16:06;5.80;99.90
12726;DHT22;6427;49.754;6.106;2022-12-07T08:18:36;6.00;99.90
12726;DHT22;6427;49.754;6.106;2022-12-07T08:21:03;6.00;99.90
12726;DHT22;6427;49.754;6.106;2022-12-07T08:23:32;6.00;99.90
12726;DHT22;6427;49.754;6.106;2022-12-07T08:26:01;5.90;99.90
12726;DHT22;6427;49.754;6.106;2022-12-07T08:28:28;5.90;99.90
12726;DHT22;6427;49.754;6.106;2022-12-07T08:31:02;5.90;99.90
12726;DHT22;6427;49.754;6.106;2022-12-07T08:33:29;5.90;99.90
12726;DHT22;6427;49.754;6.106;2022-12-07T08:36:03;5.80;99.90
12726;DHT22;6427;49.754;6.106;2022-12-07T08:38:27;5.80;99.90
12726;DHT22;6427;49.754;6.106;2022-12-07T08:40:55;5.80;99.90
12726;DHT22;6427;49.754;6.106;2022-12-07T08:43:23;5.80;99.90
12726;DHT22;6427;49.754;6.106;2022-12-07T08:46:11;5.80;99.90
12726;DHT22;6427;49.754;6.106;2022-12-07T08:48:21;5.80;99.90
12726;DHT22;6427;49.754;6.106;2022-12-07T08:50:48;5.90;99.90
12726;DHT22;6427;49.754;6.106;2022-12-07T08:53:16;5.90;99.90
12726;DHT22;6427;49.754;6.106;2022-12-07T08:55:45;5.90;99.90
12726;DHT22;6427;49.754;6.106;2022-12-07T08:58:12;5.90;99.90
12726;DHT22;6427;49.754;6.106;2022-12-07T09:00:39;5.90;99.90
12726;DHT22;6427;49.754;6.106;2022-12-07T09:03:07;5.90;99.90
12726;DHT22;6427;49.754;6.106;2022-12-07T09:05:35;6.00;99.90
12726;DHT22;6427;49.754;6.106;2022-12-07T09:08:02;6.00;99.90
12726;DHT22;6427;49.754;6.106;2022-12-07T09:10:30;6.00;99.90
12726;DHT22;6427;49.754;6.106;2022-12-07T09:12:57;6.00;99.90
12726;DHT22;6427;49.754;6.106;2022-12-07T09:15:25;6.00;99.90
12726;DHT22;6427;49.754;6.106;2022-12-07T09:17:52;6.00;99.90
12726;DHT22;6427;49.754;6.106;2022-12-07T09:20:20;6.30;99.90
12726;DHT22;6427;49.754;6.106;2022-12-07T09:22:47;6.40;99.90
12726;DHT22;6427;49.754;6.106;2022-12-07T09:25:16;6.40;99.90
12726;DHT22;6427;49.754;6.106;2022-12-07T09:27:43;6.30;99.90
12726;DHT22;6427;49.754;6.106;2022-12-07T09:30:11;6.40;99.90
12726;DHT22;6427;49.754;6.106;2022-12-07T09:32:39;6.30;99.90
12726;DHT22;6427;49.754;6.106;2022-12-07T09:35:07;6.30;99.90
12726;DHT22;6427;49.754;6.106;2022-12-07T09:37:34;6.30;99.90
12726;DHT22;6427;49.754;6.106;2022-12-07T09:40:02;6.20;99.90
12726;DHT22;6427;49.754;6.106;2022-12-07T09:42:32;6.20;99.90
12726;DHT22;6427;49.754;6.106;2022-12-07T09:44:57;6.30;99.90
12726;DHT22;6427;49.754;6.106;2022-12-07T09:47:24;6.30;99.90
12726;DHT22;6427;49.754;6.106;2022-12-07T09:49:54;6.30;99.90
12726;DHT22;6427;49.754;6.106;2022-12-07T09:52:25;6.20;99.90
12726;DHT22;6427;49.754;6.106;2022-12-07T09:54:49;6.30;99.90
12726;DHT22;6427;49.754;6.106;2022-12-07T09:57:17;6.30;99.90
12726;DHT22;6427;49.754;6.106;2022-12-07T09:59:44;6.30;99.90
12726;DHT22;6427;49.754;6.106;2022-12-07T10:02:25;6.30;99.90
12726;DHT22;6427;49.754;6.106;2022-12-07T10:04:52;6.30;99.90
12726;DHT22;6427;49.754;6.106;2022-12-07T10:07:19;6.60;99.90
12726;DHT22;6427;49.754;6.106;2022-12-07T10:09:47;6.60;99.90
12726;DHT22;6427;49.754;6.106;2022-12-07T10:12:15;6.60;99.90
12726;DHT22;6427;49.754;6.106;2022-12-07T10:14:53;6.60;99.90
12726;DHT22;6427;49.754;6.106;2022-12-07T10:17:40;6.60;99.90
12726;DHT22;6427;49.754;6.106;2022-12-07T10:20:20;6.60;99.90
12726;DHT22;6427;49.754;6.106;2022-12-07T10:22:57;6.60;99.90
12726;DHT22;6427;49.754;6.106;2022-12-07T10:25:25;6.60;99.90
12726;DHT22;6427;49.754;6.106;2022-12-07T10:28:16;6.80;99.90
12726;DHT22;6427;49.754;6.106;2022-12-07T10:30:56;6.80;99.90
12726;DHT22;6427;49.754;6.106;2022-12-07T10:33:38;6.80;99.90
12726;DHT22;6427;49.754;6.106;2022-12-07T10:36:24;6.80;99.90
12726;DHT22;6427;49.754;6.106;2022-12-07T10:39:00;6.70;99.90
12726;DHT22;6427;49.754;6.106;2022-12-07T10:41:26;6.70;99.90
12726;DHT22;6427;49.754;6.106;2022-12-07T10:43:56;6.70;99.90
12726;DHT22;6427;49.754;6.106;2022-12-07T10:46:37;6.60;99.90
12726;DHT22;6427;49.754;6.106;2022-12-07T10:49:18;6.80;99.90
12726;DHT22;6427;49.754;6.106;2022-12-07T10:51:47;6.90;99.90
12726;DHT22;6427;49.754;6.106;2022-12-07T10:55:20;6.90;99.90
12726;DHT22;6427;49.754;6.106;2022-12-07T10:59:39;6.90;99.90
12726;DHT22;6427;49.754;6.106;2022-12-07T11:10:19;6.90;99.90
12726;DHT22;6427;49.754;6.106;2022-12-07T11:16:21;7.00;99.90
12726;DHT22;6427;49.754;6.106;2022-12-07T11:18:09;7.00;99.90
12726;DHT22;6427;49.754;6.106;2022-12-07T11:20:45;7.00;99.90
12726;DHT22;6427;49.754;6.106;2022-12-07T11:23:13;7.00;99.90
12726;DHT22;6427;49.754;6.106;2022-12-07T11:28:18;7.10;99.90
12726;DHT22;6427;49.754;6.106;2022-12-07T11:30:47;7.10;99.90
12726;DHT22;6427;49.754;6.106;2022-12-07T11:38:55;7.10;99.90
12726;DHT22;6427;49.754;6.106;2022-12-07T11:41:21;7.10;99.90
12726;DHT22;6427;49.754;6.106;2022-12-07T11:43:59;7.00;99.90
12726;DHT22;6427;49.754;6.106;2022-12-07T11:46:27;7.00;99.90
12726;DHT22;6427;49.754;6.106;2022-12-07T11:49:25;7.00;99.90
12726;DHT22;6427;49.754;6.106;2022-12-07T11:51:50;7.00;99.90
12726;DHT22;6427;49.754;6.106;2022-12-07T11:54:21;7.00;99.90
12726;DHT22;6427;49.754;6.106;2022-12-07T11:56:47;7.00;99.90
12726;DHT22;6427;49.754;6.106;2022-12-07T11:59:31;7.10;99.90
12726;DHT22;6427;49.754;6.106;2022-12-07T12:02:03;7.10;99.90
12726;DHT22;6427;49.754;6.106;2022-12-07T12:06:58;7.30;99.90
12726;DHT22;6427;49.754;6.106;2022-12-07T12:09:41;7.40;99.90
12726;DHT22;6427;49.754;6.106;2022-12-07T12:17:37;7.20;99.90
12726;DHT22;6427;49.754;6.106;2022-12-07T12:20:21;7.10;99.90
12726;DHT22;6427;49.754;6.106;2022-12-07T12:22:58;7.10;99.90
12726;DHT22;6427;49.754;6.106;2022-12-07T12:25:37;7.00;99.90
12726;DHT22;6427;49.754;6.106;2022-12-07T12:28:03;7.00;99.90
12726;DHT22;6427;49.754;6.106;2022-12-07T12:30:35;6.90;99.90
12726;DHT22;6427;49.754;6.106;2022-12-07T12:33:12;6.90;99.90
12726;DHT22;6427;49.754;6.106;2022-12-07T12:35:35;7.00;99.90
12726;DHT22;6427;49.754;6.106;2022-12-07T12:38:35;7.00;99.90
12726;DHT22;6427;49.754;6.106;2022-12-07T12:40:58;7.10;99.90
12726;DHT22;6427;49.754;6.106;2022-12-07T12:43:45;7.10;99.90
12726;DHT22;6427;49.754;6.106;2022-12-07T12:51:50;7.40;99.90
12726;DHT22;6427;49.754;6.106;2022-12-07T12:56:55;7.60;99.90
12726;DHT22;6427;49.754;6.106;2022-12-07T12:59:26;7.70;99.90
12726;DHT22;6427;49.754;6.106;2022-12-07T13:05:16;7.60;99.90
12726;DHT22;6427;49.754;6.106;2022-12-07T13:07:02;7.60;99.90
12726;DHT22;6427;49.754;6.106;2022-12-07T13:09:31;7.50;99.90
12726;DHT22;6427;49.754;6.106;2022-12-07T13:12:11;7.70;99.90
12726;DHT22;6427;49.754;6.106;2022-12-07T13:14:43;7.70;99.90
12726;DHT22;6427;49.754;6.106;2022-12-07T13:17:10;7.70;99.90
12726;DHT22;6427;49.754;6.106;2022-12-07T13:25:12;7.90;99.90
12726;DHT22;6427;49.754;6.106;2022-12-07T13:27:40;7.90;99.90
12726;DHT22;6427;49.754;6.106;2022-12-07T13:30:14;7.80;99.90
12726;DHT22;6427;49.754;6.106;2022-12-07T13:32:40;7.80;99.90
12726;DHT22;6427;49.754;6.106;2022-12-07T13:35:33;7.80;99.90
12726;DHT22;6427;49.754;6.106;2022-12-07T13:38:16;7.80;99.90
12726;DHT22;6427;49.754;6.106;2022-12-07T13:40:33;7.70;99.90
12726;DHT22;6427;49.754;6.106;2022-12-07T13:43:02;7.90;99.90
12726;DHT22;6427;49.754;6.106;2022-12-07T13:45:30;7.90;99.90
12726;DHT22;6427;49.754;6.106;2022-12-07T13:48:21;7.80;99.90
12726;DHT22;6427;49.754;6.106;2022-12-07T13:50:41;7.80;99.90
12726;DHT22;6427;49.754;6.106;2022-12-07T13:53:12;7.70;99.90
12726;DHT22;6427;49.754;6.106;2022-12-07T13:55:44;7.70;99.90
12726;DHT22;6427;49.754;6.106;2022-12-07T13:58:07;7.70;99.90
12726;DHT22;6427;49.754;6.106;2022-12-07T14:00:34;7.70;99.90
12726;DHT22;6427;49.754;6.106;2022-12-07T14:05:39;7.70;99.90
12726;DHT22;6427;49.754;6.106;2022-12-07T14:08:21;7.70;99.90
12726;DHT22;6427;49.754;6.106;2022-12-07T14:10:39;7.60;99.90
12726;DHT22;6427;49.754;6.106;2022-12-07T14:13:03;7.60;99.90
12726;DHT22;6427;49.754;6.106;2022-12-07T14:15:33;7.60;99.90
12726;DHT22;6427;49.754;6.106;2022-12-07T14:18:00;7.60;99.90
12726;DHT22;6427;49.754;6.106;2022-12-07T14:20:34;7.60;99.90
12726;DHT22;6427;49.754;6.106;2022-12-07T14:23:01;7.50;99.90
12726;DHT22;6427;49.754;6.106;2022-12-07T14:25:28;7.50;99.90
12726;DHT22;6427;49.754;6.106;2022-12-07T14:30:28;7.50;99.90
12726;DHT22;6427;49.754;6.106;2022-12-07T14:32:57;7.50;99.90
12726;DHT22;6427;49.754;6.106;2022-12-07T14:35:21;7.40;99.90
12726;DHT22;6427;49.754;6.106;2022-12-07T14:37:49;7.40;99.90
12726;DHT22;6427;49.754;6.106;2022-12-07T14:40:22;7.40;99.90
12726;DHT22;6427;49.754;6.106;2022-12-07T14:43:03;7.40;99.90
12726;DHT22;6427;49.754;6.106;2022-12-07T14:45:20;7.30;99.90
12726;DHT22;6427;49.754;6.106;2022-12-07T14:47:47;7.50;99.90
12726;DHT22;6427;49.754;6.106;2022-12-07T14:50:15;7.80;99.90
12726;DHT22;6427;49.754;6.106;2022-12-07T14:52:43;7.70;99.90
12726;DHT22;6427;49.754;6.106;2022-12-07T14:55:14;7.50;99.90
12726;DHT22;6427;49.754;6.106;2022-12-07T14:57:43;7.50;99.90
12726;DHT22;6427;49.754;6.106;2022-12-07T15:00:15;7.40;99.90
12726;DHT22;6427;49.754;6.106;2022-12-07T15:02:38;7.30;99.90
12726;DHT22;6427;49.754;6.106;2022-12-07T15:05:06;7.30;99.90
12726;DHT22;6427;49.754;6.106;2022-12-07T15:07:33;7.20;99.90
12726;DHT22;6427;49.754;6.106;2022-12-07T15:10:01;7.20;99.90
12726;DHT22;6427;49.754;6.106;2022-12-07T15:12:29;7.20;99.90
12726;DHT22;6427;49.754;6.106;2022-12-07T15:14:56;7.20;99.90
12726;DHT22;6427;49.754;6.106;2022-12-07T15:17:24;7.10;99.90
12726;DHT22;6427;49.754;6.106;2022-12-07T15:19:51;7.10;99.90
12726;DHT22;6427;49.754;6.106;2022-12-07T15:22:20;7.20;99.90
12726;DHT22;6427;49.754;6.106;2022-12-07T15:24:47;7.20;99.90
12726;DHT22;6427;49.754;6.106;2022-12-07T15:27:15;7.20;99.90
12726;DHT22;6427;49.754;6.106;2022-12-07T15:29:42;7.10;99.90
12726;DHT22;6427;49.754;6.106;2022-12-07T15:32:10;7.10;99.90
12726;DHT22;6427;49.754;6.106;2022-12-07T15:34:38;7.00;99.90
12726;DHT22;6427;49.754;6.106;2022-12-07T15:37:07;6.90;99.90
12726;DHT22;6427;49.754;6.106;2022-12-07T15:39:35;6.90;99.90
12726;DHT22;6427;49.754;6.106;2022-12-07T15:42:02;6.90;99.90
12726;DHT22;6427;49.754;6.106;2022-12-07T15:44:30;6.80;99.90
12726;DHT22;6427;49.754;6.106;2022-12-07T15:47:15;7.00;99.90
12726;DHT22;6427;49.754;6.106;2022-12-07T15:49:43;7.00;99.90
12726;DHT22;6427;49.754;6.106;2022-12-07T15:52:10;7.00;99.90
12726;DHT22;6427;49.754;6.106;2022-12-07T15:54:38;6.90;99.90
12726;DHT22;6427;49.754;6.106;2022-12-07T15:57:06;6.70;99.90
12726;DHT22;6427;49.754;6.106;2022-12-07T15:59:34;6.60;99.90
12726;DHT22;6427;49.754;6.106;2022-12-07T16:02:02;6.60;99.90
12726;DHT22;6427;49.754;6.106;2022-12-07T16:04:29;6.60;99.90
12726;DHT22;6427;49.754;6.106;2022-12-07T16:06:57;6.70;99.90
12726;DHT22;6427;49.754;6.106;2022-12-07T16:09:25;7.00;99.90
12726;DHT22;6427;49.754;6.106;2022-12-07T16:11:52;6.90;99.90
12726;DHT22;6427;49.754;6.106;2022-12-07T16:14:20;6.80;99.90
12726;DHT22;6427;49.754;6.106;2022-12-07T16:16:47;6.70;99.90
12726;DHT22;6427;49.754;6.106;2022-12-07T16:19:15;6.70;99.90
12726;DHT22;6427;49.754;6.106;2022-12-07T16:21:43;6.90;99.90
12726;DHT22;6427;49.754;6.106;2022-12-07T16:24:11;6.80;99.90
12726;DHT22;6427;49.754;6.106;2022-12-07T16:26:38;6.80;99.90
12726;DHT22;6427;49.754;6.106;2022-12-07T16:29:06;6.70;99.90
12726;DHT22;6427;49.754;6.106;2022-12-07T16:31:33;6.60;99.90
12726;DHT22;6427;49.754;6.106;2022-12-07T16:34:01;6.50;99.90
12726;DHT22;6427;49.754;6.106;2022-12-07T16:36:28;6.30;99.90
12726;DHT22;6427;49.754;6.106;2022-12-07T16:38:57;6.20;99.90
12726;DHT22;6427;49.754;6.106;2022-12-07T16:41:23;6.10;99.90
12726;DHT22;6427;49.754;6.106;2022-12-07T16:43:51;6.00;99.90
12726;DHT22;6427;49.754;6.106;2022-12-07T16:46:18;6.00;99.90
12726;DHT22;6427;49.754;6.106;2022-12-07T16:48:47;5.80;99.90
12726;DHT22;6427;49.754;6.106;2022-12-07T16:51:14;5.80;99.90
12726;DHT22;6427;49.754;6.106;2022-12-07T16:53:42;5.80;99.90
12726;DHT22;6427;49.754;6.106;2022-12-07T16:56:13;5.80;99.90
12726;DHT22;6427;49.754;6.106;2022-12-07T16:58:41;5.80;99.90
12726;DHT22;6427;49.754;6.106;2022-12-07T17:01:16;5.80;99.90
12726;DHT22;6427;49.754;6.106;2022-12-07T17:03:40;5.80;99.90
12726;DHT22;6427;49.754;6.106;2022-12-07T17:06:23;5.80;99.90
12726;DHT22;6427;49.754;6.106;2022-12-07T17:08:47;6.00;99.90
12726;DHT22;6427;49.754;6.106;2022-12-07T17:11:19;6.00;99.90
12726;DHT22;6427;49.754;6.106;2022-12-07T17:13:42;6.00;99.90
12726;DHT22;6427;49.754;6.106;2022-12-07T17:16:28;6.00;99.90
12726;DHT22;6427;49.754;6.106;2022-12-07T17:18:56;6.00;99.90
12726;DHT22;6427;49.754;6.106;2022-12-07T17:21:23;6.00;99.90
12726;DHT22;6427;49.754;6.106;2022-12-07T17:23:51;6.00;99.90
12726;DHT22;6427;49.754;6.106;2022-12-07T17:26:21;6.00;99.90
12726;DHT22;6427;49.754;6.106;2022-12-07T17:28:47;5.90;99.90
12726;DHT22;6427;49.754;6.106;2022-12-07T17:31:16;5.90;99.90
12726;DHT22;6427;49.754;6.106;2022-12-07T17:33:42;5.90;99.90